GLO1732 SBBE-SBMQ
Flight info
| Callsign | GLO1732 |
|---|---|
| Flight time | 0h 37m |
| Altitude | 28000 |
| Route | PUDMI DCT MCP DCT |
| Aircraft | B738/M-SDFGIKLORWXY/LB1 |
Departure
| Time | 2026-04-25 21:45 |
|---|---|
| Airport | Val de Cans/Júlio Cezar Ribeiro International Airport (SBBE) |
Arrival
| Time | 2026-04-25 22:22 |
|---|---|
| Airport | Macapá - Alberto Alcolumbre International Airport (SBMQ) |
| Time | Latitude | Longitude | Altitude | Speed | Heading |
|---|---|---|---|---|---|
| 2026-04-25 21:17 | -1.38995 | -48.47891 | 42 ft | 0 kts | 275° |
| 2026-04-25 21:37 | -1.38996 | -48.47881 | 42 ft | 4 kts | 277° |
| 2026-04-25 21:37 | -1.39001 | -48.47854 | 41 ft | 4 kts | 291° |
| 2026-04-25 21:38 | -1.39014 | -48.47832 | 40 ft | 4 kts | 319° |
| 2026-04-25 21:38 | -1.39032 | -48.47823 | 42 ft | 1 kts | 5° |
| 2026-04-25 21:38 | -1.39037 | -48.47824 | 42 ft | 0 kts | 5° |
| 2026-04-25 21:40 | -1.39036 | -48.47824 | 42 ft | 1 kts | 5° |
| 2026-04-25 21:40 | -1.39017 | -48.47822 | 42 ft | 6 kts | 5° |
| 2026-04-25 21:40 | -1.38964 | -48.47817 | 42 ft | 8 kts | 5° |
| 2026-04-25 21:41 | -1.38909 | -48.47812 | 42 ft | 8 kts | 5° |
| 2026-04-25 21:41 | -1.38856 | -48.47808 | 39 ft | 8 kts | 5° |
| 2026-04-25 21:41 | -1.38805 | -48.47803 | 42 ft | 8 kts | 5° |
| 2026-04-25 21:41 | -1.38746 | -48.47798 | 42 ft | 10 kts | 5° |
| 2026-04-25 21:42 | -1.38684 | -48.47795 | 42 ft | 6 kts | 346° |
| 2026-04-25 21:42 | -1.38668 | -48.47830 | 42 ft | 6 kts | 275° |
| 2026-04-25 21:42 | -1.38669 | -48.47884 | 42 ft | 11 kts | 269° |
| 2026-04-25 21:42 | -1.38671 | -48.47969 | 42 ft | 12 kts | 269° |
| 2026-04-25 21:43 | -1.38674 | -48.48054 | 43 ft | 12 kts | 269° |
| 2026-04-25 21:43 | -1.38675 | -48.48137 | 43 ft | 12 kts | 269° |
| 2026-04-25 21:43 | -1.38677 | -48.48218 | 43 ft | 11 kts | 269° |
| 2026-04-25 21:43 | -1.38679 | -48.48297 | 41 ft | 11 kts | 269° |
| 2026-04-25 21:44 | -1.38676 | -48.48355 | 41 ft | 4 kts | 309° |
| 2026-04-25 21:44 | -1.38645 | -48.48342 | 41 ft | 8 kts | 47° |
| 2026-04-25 21:44 | -1.37944 | -48.47634 | 38 ft | 137 kts | 45° |
| 2026-04-25 21:45 | -1.37159 | -48.46834 | 194 ft | 176 kts | 46° |
| 2026-04-25 21:45 | -1.36576 | -48.46257 | 616 ft | 181 kts | 46° |
| 2026-04-25 21:45 | -1.35362 | -48.45073 | 1565 ft | 187 kts | 44° |
| 2026-04-25 21:45 | -1.34204 | -48.44460 | 2172 ft | 200 kts | 9° |
| 2026-04-25 21:46 | -1.32779 | -48.44759 | 2377 ft | 226 kts | 326° |
| 2026-04-25 21:46 | -1.31786 | -48.46033 | 2629 ft | 245 kts | 296° |
| 2026-04-25 21:46 | -1.30902 | -48.47577 | 2832 ft | 266 kts | 307° |
| 2026-04-25 21:46 | -1.29744 | -48.49066 | 3434 ft | 275 kts | 307° |
| 2026-04-25 21:47 | -1.28606 | -48.50604 | 4235 ft | 276 kts | 307° |
| 2026-04-25 21:47 | -1.27471 | -48.52161 | 5023 ft | 278 kts | 307° |
| 2026-04-25 21:47 | -1.26337 | -48.53737 | 5771 ft | 281 kts | 304° |
| 2026-04-25 21:47 | -1.25275 | -48.55385 | 6501 ft | 283 kts | 302° |
| 2026-04-25 21:48 | -1.24235 | -48.57078 | 7200 ft | 286 kts | 302° |
| 2026-04-25 21:48 | -1.23195 | -48.58787 | 7871 ft | 290 kts | 302° |
| 2026-04-25 21:48 | -1.22143 | -48.60513 | 8576 ft | 292 kts | 302° |
| 2026-04-25 21:48 | -1.21074 | -48.62261 | 9251 ft | 296 kts | 302° |
| 2026-04-25 21:49 | -1.19994 | -48.64023 | 9947 ft | 299 kts | 302° |
| 2026-04-25 21:49 | -1.18916 | -48.65778 | 10589 ft | 301 kts | 302° |
| 2026-04-25 21:49 | -1.17819 | -48.67563 | 11270 ft | 302 kts | 302° |
| 2026-04-25 21:49 | -1.16715 | -48.69355 | 11959 ft | 304 kts | 303° |
| 2026-04-25 21:50 | -1.15602 | -48.71161 | 12644 ft | 306 kts | 303° |
| 2026-04-25 21:50 | -1.14477 | -48.72985 | 13331 ft | 309 kts | 303° |
| 2026-04-25 21:50 | -1.13344 | -48.74822 | 13979 ft | 312 kts | 303° |
| 2026-04-25 21:50 | -1.12571 | -48.76074 | 14393 ft | 315 kts | 303° |
| 2026-04-25 21:51 | -1.11035 | -48.78564 | 15201 ft | 320 kts | 303° |
| 2026-04-25 21:51 | -1.09861 | -48.80466 | 15829 ft | 323 kts | 303° |
| 2026-04-25 21:51 | -1.08673 | -48.82391 | 16439 ft | 327 kts | 303° |
| 2026-04-25 21:51 | -1.07472 | -48.84336 | 17062 ft | 330 kts | 303° |
| 2026-04-25 21:52 | -1.06262 | -48.86297 | 17691 ft | 333 kts | 303° |
| 2026-04-25 21:52 | -1.05041 | -48.88276 | 18277 ft | 337 kts | 303° |
| 2026-04-25 21:52 | -1.03803 | -48.90281 | 18803 ft | 341 kts | 303° |
| 2026-04-25 21:52 | -1.02555 | -48.92303 | 19347 ft | 343 kts | 303° |
| 2026-04-25 21:53 | -1.01298 | -48.94339 | 19890 ft | 346 kts | 303° |
| 2026-04-25 21:53 | -1.00028 | -48.96397 | 20423 ft | 349 kts | 303° |
| 2026-04-25 21:53 | -0.98752 | -48.98464 | 20958 ft | 352 kts | 303° |
| 2026-04-25 21:53 | -0.97501 | -49.00491 | 21478 ft | 355 kts | 303° |
| 2026-04-25 21:54 | -0.96200 | -49.02599 | 22001 ft | 358 kts | 303° |
| 2026-04-25 21:54 | -0.94888 | -49.04725 | 22519 ft | 361 kts | 303° |
| 2026-04-25 21:54 | -0.93582 | -49.06840 | 23016 ft | 364 kts | 303° |
| 2026-04-25 21:54 | -0.92246 | -49.09005 | 23520 ft | 367 kts | 303° |
| 2026-04-25 21:55 | -0.90898 | -49.11189 | 23903 ft | 371 kts | 303° |
| 2026-04-25 21:55 | -0.89534 | -49.13399 | 24297 ft | 375 kts | 303° |
| 2026-04-25 21:55 | -0.88160 | -49.15624 | 24714 ft | 378 kts | 303° |
| 2026-04-25 21:55 | -0.86771 | -49.17875 | 25101 ft | 381 kts | 303° |
| 2026-04-25 21:56 | -0.85372 | -49.20143 | 25498 ft | 384 kts | 303° |
| 2026-04-25 21:56 | -0.84439 | -49.21655 | 25767 ft | 386 kts | 303° |
| 2026-04-25 21:56 | -0.82541 | -49.24729 | 26291 ft | 391 kts | 303° |
| 2026-04-25 21:56 | -0.81108 | -49.27051 | 26676 ft | 394 kts | 303° |
| 2026-04-25 21:57 | -0.79667 | -49.29385 | 27053 ft | 397 kts | 303° |
| 2026-04-25 21:57 | -0.78219 | -49.31748 | 27467 ft | 398 kts | 302° |
| 2026-04-25 21:57 | -0.76799 | -49.34089 | 27869 ft | 400 kts | 302° |
| 2026-04-25 21:57 | -0.75341 | -49.36498 | 27920 ft | 410 kts | 302° |
| 2026-04-25 21:58 | -0.73849 | -49.38966 | 27945 ft | 420 kts | 302° |
| 2026-04-25 21:58 | -0.72322 | -49.41489 | 27949 ft | 429 kts | 302° |
| 2026-04-25 21:58 | -0.70760 | -49.44070 | 27952 ft | 438 kts | 302° |
| 2026-04-25 21:58 | -0.69170 | -49.46697 | 27951 ft | 446 kts | 302° |
| 2026-04-25 21:59 | -0.67549 | -49.49373 | 27947 ft | 454 kts | 302° |
| 2026-04-25 21:59 | -0.65897 | -49.52100 | 27947 ft | 461 kts | 302° |
| 2026-04-25 21:59 | -0.64229 | -49.54854 | 27945 ft | 467 kts | 302° |
| 2026-04-25 22:00 | -0.61158 | -49.60483 | 27926 ft | 450 kts | 290° |
| 2026-04-25 22:00 | -0.60259 | -49.63445 | 27682 ft | 444 kts | 287° |
| 2026-04-25 22:00 | -0.59421 | -49.66402 | 27305 ft | 438 kts | 287° |
| 2026-04-25 22:00 | -0.58593 | -49.69324 | 26856 ft | 436 kts | 287° |
| 2026-04-25 22:01 | -0.57763 | -49.72222 | 26423 ft | 432 kts | 287° |
| 2026-04-25 22:01 | -0.57213 | -49.74129 | 26125 ft | 431 kts | 287° |
| 2026-04-25 22:01 | -0.56377 | -49.76998 | 25684 ft | 428 kts | 287° |
| 2026-04-25 22:01 | -0.55825 | -49.78884 | 25377 ft | 428 kts | 288° |
| 2026-04-25 22:02 | -0.54704 | -49.82695 | 24766 ft | 425 kts | 288° |
| 2026-04-25 22:02 | -0.53879 | -49.85496 | 24305 ft | 424 kts | 288° |
| 2026-04-25 22:02 | -0.53047 | -49.88316 | 23860 ft | 423 kts | 288° |
| 2026-04-25 22:02 | -0.52218 | -49.91129 | 23389 ft | 422 kts | 288° |
| 2026-04-25 22:03 | -0.51390 | -49.93937 | 22876 ft | 420 kts | 288° |
| 2026-04-25 22:03 | -0.50568 | -49.96723 | 22420 ft | 417 kts | 288° |
| 2026-04-25 22:03 | -0.49753 | -49.99489 | 21961 ft | 414 kts | 288° |
| 2026-04-25 22:03 | -0.48975 | -50.02130 | 21535 ft | 411 kts | 288° |
| 2026-04-25 22:04 | -0.48170 | -50.04859 | 21100 ft | 408 kts | 288° |
| 2026-04-25 22:04 | -0.47372 | -50.07568 | 20664 ft | 405 kts | 288° |
| 2026-04-25 22:04 | -0.46579 | -50.10259 | 20237 ft | 403 kts | 288° |
| 2026-04-25 22:04 | -0.45790 | -50.12935 | 19811 ft | 400 kts | 288° |
| 2026-04-25 22:05 | -0.45005 | -50.15599 | 19360 ft | 399 kts | 288° |
| 2026-04-25 22:05 | -0.44222 | -50.18253 | 18929 ft | 397 kts | 288° |
| 2026-04-25 22:05 | -0.43444 | -50.20894 | 18499 ft | 395 kts | 287° |
| 2026-04-25 22:05 | -0.42667 | -50.23528 | 18044 ft | 394 kts | 287° |
| 2026-04-25 22:06 | -0.41906 | -50.26110 | 17581 ft | 391 kts | 287° |
| 2026-04-25 22:06 | -0.41140 | -50.28710 | 17158 ft | 388 kts | 287° |
| 2026-04-25 22:06 | -0.40382 | -50.31284 | 16732 ft | 385 kts | 287° |
| 2026-04-25 22:06 | -0.39627 | -50.33843 | 16314 ft | 382 kts | 287° |
| 2026-04-25 22:07 | -0.38878 | -50.36385 | 15901 ft | 379 kts | 287° |
| 2026-04-25 22:07 | -0.38386 | -50.38056 | 15631 ft | 377 kts | 287° |
| 2026-04-25 22:07 | -0.37398 | -50.41405 | 15089 ft | 374 kts | 287° |
| 2026-04-25 22:07 | -0.36665 | -50.43892 | 14687 ft | 372 kts | 287° |
| 2026-04-25 22:08 | -0.35936 | -50.46364 | 14276 ft | 370 kts | 287° |
| 2026-04-25 22:08 | -0.35211 | -50.48824 | 13874 ft | 368 kts | 287° |
| 2026-04-25 22:08 | -0.34490 | -50.51269 | 13424 ft | 366 kts | 287° |
| 2026-04-25 22:08 | -0.33774 | -50.53698 | 13001 ft | 364 kts | 287° |
| 2026-04-25 22:09 | -0.33061 | -50.56119 | 12587 ft | 361 kts | 287° |
| 2026-04-25 22:09 | -0.32355 | -50.58514 | 12195 ft | 358 kts | 287° |
| 2026-04-25 22:09 | -0.31660 | -50.60869 | 11802 ft | 356 kts | 287° |
| 2026-04-25 22:09 | -0.30957 | -50.63255 | 11399 ft | 350 kts | 287° |
| 2026-04-25 22:10 | -0.30284 | -50.65540 | 11014 ft | 344 kts | 287° |
| 2026-04-25 22:10 | -0.29610 | -50.67825 | 10643 ft | 343 kts | 287° |
| 2026-04-25 22:10 | -0.28942 | -50.70093 | 10421 ft | 336 kts | 287° |
| 2026-04-25 22:10 | -0.28288 | -50.72311 | 10250 ft | 328 kts | 287° |
| 2026-04-25 22:11 | -0.27653 | -50.74467 | 10107 ft | 320 kts | 287° |
| 2026-04-25 22:11 | -0.27032 | -50.76572 | 9967 ft | 310 kts | 287° |
| 2026-04-25 22:11 | -0.26428 | -50.78622 | 9706 ft | 307 kts | 287° |
| 2026-04-25 22:11 | -0.25827 | -50.80659 | 9396 ft | 305 kts | 287° |
| 2026-04-25 22:12 | -0.25228 | -50.82689 | 9094 ft | 304 kts | 287° |
| 2026-04-25 22:12 | -0.24632 | -50.84712 | 8791 ft | 303 kts | 287° |
| 2026-04-25 22:12 | -0.24037 | -50.86729 | 8490 ft | 301 kts | 287° |
| 2026-04-25 22:12 | -0.23646 | -50.88054 | 8294 ft | 301 kts | 287° |
| 2026-04-25 22:13 | -0.22857 | -50.90729 | 7889 ft | 299 kts | 287° |
| 2026-04-25 22:13 | -0.22269 | -50.92725 | 7595 ft | 298 kts | 287° |
| 2026-04-25 22:13 | -0.21695 | -50.94672 | 7294 ft | 294 kts | 287° |
| 2026-04-25 22:13 | -0.21122 | -50.96618 | 7017 ft | 291 kts | 287° |
| 2026-04-25 22:14 | -0.20550 | -50.98556 | 6724 ft | 291 kts | 287° |
| 2026-04-25 22:14 | -0.19998 | -51.00430 | 6447 ft | 290 kts | 287° |
| 2026-04-25 22:14 | -0.19428 | -51.02361 | 6132 ft | 290 kts | 287° |
| 2026-04-25 22:14 | -0.18857 | -51.04298 | 5830 ft | 290 kts | 287° |
| 2026-04-25 22:15 | -0.18289 | -51.06225 | 5529 ft | 289 kts | 287° |
| 2026-04-25 22:15 | -0.17722 | -51.08149 | 5235 ft | 287 kts | 287° |
| 2026-04-25 22:15 | -0.17163 | -51.10047 | 4946 ft | 281 kts | 287° |
| 2026-04-25 22:16 | -0.16067 | -51.13762 | 4399 ft | 280 kts | 287° |
| 2026-04-25 22:16 | -0.15519 | -51.15623 | 4117 ft | 279 kts | 287° |
| 2026-04-25 22:16 | -0.14976 | -51.17461 | 3997 ft | 272 kts | 288° |
| 2026-04-25 22:16 | -0.14140 | -51.19105 | 3837 ft | 263 kts | 315° |
| 2026-04-25 22:17 | -0.12683 | -51.20124 | 3749 ft | 252 kts | 339° |
| 2026-04-25 22:17 | -0.11038 | -51.20610 | 3652 ft | 243 kts | 349° |
| 2026-04-25 22:17 | -0.09414 | -51.20958 | 3567 ft | 233 kts | 349° |
| 2026-04-25 22:17 | -0.07875 | -51.21283 | 3506 ft | 219 kts | 349° |
| 2026-04-25 22:18 | -0.06466 | -51.21586 | 3354 ft | 210 kts | 350° |
| 2026-04-25 22:18 | -0.05058 | -51.21679 | 3141 ft | 200 kts | 17° |
| 2026-04-25 22:18 | -0.03921 | -51.20997 | 2963 ft | 186 kts | 45° |
| 2026-04-25 22:18 | -0.03162 | -51.20002 | 2773 ft | 176 kts | 59° |
| 2026-04-25 22:19 | -0.02547 | -51.19008 | 2684 ft | 164 kts | 59° |
| 2026-04-25 22:19 | -0.01955 | -51.18081 | 2464 ft | 152 kts | 58° |
| 2026-04-25 22:19 | -0.01399 | -51.17220 | 2270 ft | 148 kts | 58° |
| 2026-04-25 22:19 | -0.00839 | -51.16352 | 2078 ft | 149 kts | 58° |
| 2026-04-25 22:20 | -0.00275 | -51.15479 | 1882 ft | 148 kts | 58° |
| 2026-04-25 22:20 | 0.00275 | -51.14626 | 1643 ft | 146 kts | 58° |
| 2026-04-25 22:20 | 0.00834 | -51.13762 | 1445 ft | 147 kts | 58° |
| 2026-04-25 22:20 | 0.01387 | -51.12905 | 1256 ft | 146 kts | 58° |
| 2026-04-25 22:21 | 0.01926 | -51.12055 | 1023 ft | 144 kts | 58° |
| 2026-04-25 22:21 | 0.02473 | -51.11216 | 802 ft | 144 kts | 56° |
| 2026-04-25 22:21 | 0.03026 | -51.10366 | 620 ft | 145 kts | 59° |
| 2026-04-25 22:21 | 0.03566 | -51.09523 | 422 ft | 143 kts | 57° |
| 2026-04-25 22:22 | 0.04106 | -51.08692 | 257 ft | 142 kts | 58° |
| 2026-04-25 22:22 | 0.04645 | -51.07860 | 52 ft | 142 kts | 57° |
| 2026-04-25 22:22 | 0.05128 | -51.07113 | 29 ft | 104 kts | 57° |
| 2026-04-25 22:22 | 0.05403 | -51.06690 | 27 ft | 42 kts | 57° |
| 2026-04-25 22:23 | 0.05506 | -51.06530 | 28 ft | 13 kts | 57° |
| 2026-04-25 22:23 | 0.05546 | -51.06478 | 27 ft | 7 kts | 32° |
| 2026-04-25 22:23 | 0.05589 | -51.06459 | 27 ft | 7 kts | 64° |
| 2026-04-25 22:23 | 0.05558 | -51.06444 | 27 ft | 7 kts | 222° |
| 2026-04-25 22:24 | 0.05525 | -51.06492 | 26 ft | 10 kts | 236° |
| 2026-04-25 22:24 | 0.05476 | -51.06566 | 26 ft | 15 kts | 236° |
| 2026-04-25 22:24 | 0.05416 | -51.06669 | 26 ft | 19 kts | 239° |
| 2026-04-25 22:24 | 0.05341 | -51.06784 | 28 ft | 20 kts | 238° |
| 2026-04-25 22:25 | 0.05279 | -51.06883 | 28 ft | 11 kts | 238° |
| 2026-04-25 22:25 | 0.05227 | -51.06910 | 28 ft | 9 kts | 170° |
| 2026-04-25 22:25 | 0.05175 | -51.06880 | 27 ft | 9 kts | 147° |
| 2026-04-25 22:25 | 0.05122 | -51.06846 | 26 ft | 9 kts | 147° |
| 2026-04-25 22:26 | 0.05098 | -51.06813 | 28 ft | 1 kts | 105° |
| 2026-04-25 22:26 | 0.05094 | -51.06803 | 27 ft | 4 kts | 115° |
| 2026-04-25 22:26 | 0.05070 | -51.06779 | 30 ft | 5 kts | 133° |
| 2026-04-25 22:26 | 0.05062 | -51.06764 | 30 ft | 1 kts | 118° |
| 2026-04-25 22:27 | 0.05059 | -51.06760 | 28 ft | 0 kts | 118° |